Главная страница
METAR-TAF:

METAR-TAF

Аэропорты :

Батман, Турция

широта: 37-52N, долгота: 041-10E, высота над уровнем моря: 540 м

Текущие метеонаблюдения

Эта сводка был подготовлена 53 минут назад, в 07:20 UTC
Ветер 5 Узел от северо-западный, изменяющийся между западный и восточно-северо-восточный
Температура 27°C
Влажность 42%
Давление 1011 hPa
Видимость 10 км и более
Нет облачности ниже 1500 м, и нет кучево-дождевой облачности

METAR: LTCJ 220720Z 32005KT 270V060 CAVOK 27/13 Q1011 NOSIG RMK RWY20 32005KT 270V010 SKC

Время: 11:13 (08:13 UTC)

Прогноз

Эта сводка был подготовлена 3 часа и 33 минут назад, в 04:40 UTC
Прогноз действительный с 22-го 06 UTC до 23-го 06 UTC
Ветер 2 Узел переменных направлений
Видимость 10 км и более
Нет облачности ниже 1500 м, и нет кучево-дождевой облачности
временами
С 22-го 14 UTC до 22-го 18 UTC
Ветер 12 Узел от северо-северо-восточный

TAF: LTCJ 220440Z 2206/2306 VRB02KT CAVOK TEMPO 2214/2218 03012KT

Метеонаблюдения и прогнозы для более 4000 аэропортов (сводки METAR и TAF).

Имеющиеся станции представлены на карте желтыми и красными точками.

Чтобы увидеть название станции, наведите на нее мышь.

Затем щелкните, чтобы увидеть метеонаблюдения и метеопрогнозы.

Управление картой: чтобы увеличить масштаб, щелкните зеленые кнопки с черным крестиком; чтобы уменьшить масштаб, щелкните зеленую кнопку с тире; для просмотра соседних карт щелкайте зеленые стрелки.


METAR-TAF: